Accueil
METAR-TAF:

METAR-TAF

Aéroports :

Circuit de Zeltweg

Zeltweg, Autriche

latitude: 47-12N, longitude: 014-45E, altitude: 677 m

Observation

Le bulletin a été fait il y a 39 minutes, à 07:20 UTC
Vent 1 kt de direction variable
Température -2°C
Humidité 86%
Pression 1025 hPa

METAR: LOXZ 300720Z VRB01KT 12KM FEW025SC BKN028SC M02/M04 Q1025 NOSIG

Heure: 08:59 (07:59 UTC)

Prévision

Le bulletin a été fait il y a 1 heure et 44 minutes, à 06:15 UTC
Prévision valable du 30 à 06 UTC au 30 à 15 UTC
Vent 3 kt de direction variable
Visibilité 10 km ou plus
Nuages fragmentés à une hauteur de 2500 ft
Evoluant progressivement
du 30 à 09 UTC au 30 à 11 UTC
Ciel clair

TAF: LOXZ 300615Z 3006/3015 VRB03KT 9999 BKN025 BECMG 3009/3011 SKC

Observations et prévisions météorologiques de plus de 4000 aéroports (messages METAR et TAF).

Les stations disponibles sont représentées par des disques jaunes et rouges sur la carte.

Passer la souris dessus pour voir le nom de la station.

Cliquer dessus pour voir les observations et prévisions météorologiques.

Pour changer de carte: cliquez sur les boutons verts avec une croix noire pour zoomer, sur le bouton vert avec un tiret pour effectuer un zoom arrière, ou sur les flèches vertes pour les cartes adjacentes.


METAR-TAF: